Time;durP1;ratioP1;P1;durP2;ratioP2;P2;SDS_P1;SDS_P2;PMS_P1;PMS_P2;Temp;Humidity;BMP_temperature;BMP_pressure;BME280_temperature;BME280_humidity;BME280_pressure;Samples;Min_cycle;Max_cycle;Signal;HPM_P1;HPM_P2
2023/02/27 00:01:59;;;;;;;3.03;1.00;;;0.30;99.90;;;;;;5074954;28;20377;-68
2023/02/27 00:04:25;;;;;;;2.03;0.80;;;0.40;99.90;;;;;;5091953;28;20440;-68
2023/02/27 00:06:50;;;;;;;6.10;1.00;;;0.30;99.90;;;;;;5093323;28;20028;-68
2023/02/27 00:09:16;;;;;;;3.47;1.00;;;0.30;99.90;;;;;;5083470;28;20043;-68
2023/02/27 00:11:42;;;;;;;1.03;0.80;;;0.30;99.90;;;;;;5088107;28;20075;-68
2023/02/27 00:14:08;;;;;;;5.53;1.00;;;0.30;99.90;;;;;;5074207;28;20473;-69
2023/02/27 00:16:33;;;;;;;3.20;1.53;;;0.30;99.90;;;;;;5092031;28;20262;-69
2023/02/27 00:19:03;;;;;;;3.37;1.30;;;0.30;99.90;;;;;;5092248;28;20296;-69
2023/02/27 00:21:28;;;;;;;3.20;1.17;;;0.30;99.90;;;;;;5097220;28;20070;-69
2023/02/27 00:23:54;;;;;;;4.33;1.00;;;0.30;99.90;;;;;;5093733;28;20024;-69
2023/02/27 00:26:20;;;;;;;3.77;1.13;;;0.30;99.90;;;;;;5075792;28;20020;-68
2023/02/27 00:28:45;;;;;;;2.33;1.00;;;0.30;99.90;;;;;;5093772;28;20069;-68
2023/02/27 00:31:11;;;;;;;3.47;1.30;;;0.30;99.90;;;;;;5094065;28;20125;-69
2023/02/27 00:33:36;;;;;;;2.83;1.13;;;0.30;99.90;;;;;;5076792;28;20401;-70
2023/02/27 00:36:02;;;;;;;4.20;0.97;;;0.30;99.90;;;;;;5070475;28;20134;-69
2023/02/27 00:38:28;;;;;;;0.95;0.90;;;0.30;99.90;;;;;;5096838;28;20130;-69
2023/02/27 00:40:54;;;;;;;2.97;1.20;;;0.30;99.90;;;;;;5099751;28;20056;-69
2023/02/27 00:43:20;;;;;;;3.37;1.50;;;0.30;99.90;;;;;;5098117;28;20027;-69
2023/02/27 00:45:47;;;;;;;1.35;0.98;;;0.30;99.90;;;;;;5098826;28;20044;-68
2023/02/27 00:48:13;;;;;;;6.28;1.23;;;0.20;99.90;;;;;;5073126;28;20049;-68
2023/02/27 00:50:38;;;;;;;2.10;1.00;;;0.20;99.90;;;;;;5060695;28;20414;-69
2023/02/27 00:53:04;;;;;;;3.27;1.00;;;0.20;99.90;;;;;;5080031;28;20017;-69
2023/02/27 00:55:30;;;;;;;2.53;0.80;;;0.20;99.90;;;;;;5080467;28;20101;-68
2023/02/27 00:57:55;;;;;;;1.38;0.80;;;0.20;99.90;;;;;;5097651;28;20019;-69
2023/02/27 01:00:21;;;;;;;2.10;1.10;;;0.20;99.90;;;;;;5080118;28;20039;-68
2023/02/27 01:02:46;;;;;;;3.00;1.00;;;0.20;99.90;;;;;;5078594;28;20039;-69
2023/02/27 01:05:13;;;;;;;1.90;1.10;;;0.10;99.90;;;;;;5092645;28;20059;-69
2023/02/27 01:07:38;;;;;;;2.70;1.17;;;0.10;99.90;;;;;;5103829;28;20432;-69
2023/02/27 01:10:05;;;;;;;3.83;1.10;;;0.10;99.90;;;;;;5098985;28;20028;-68
2023/02/27 01:12:30;;;;;;;3.58;1.35;;;0.10;99.90;;;;;;5104594;28;20028;-69
2023/02/27 01:14:57;;;;;;;1.70;1.17;;;0.10;99.90;;;;;;5100860;28;20028;-69
2023/02/27 01:17:23;;;;;;;2.85;1.88;;;0.10;99.90;;;;;;5098248;28;20028;-68
2023/02/27 01:19:48;;;;;;;2.33;1.30;;;0.10;99.90;;;;;;5097997;28;20503;-69
2023/02/27 01:22:14;;;;;;;3.40;1.27;;;0.10;99.90;;;;;;5098159;28;20026;-68
2023/02/27 01:24:39;;;;;;;2.40;1.00;;;0.10;99.90;;;;;;5097745;28;20032;-68
2023/02/27 01:27:05;;;;;;;2.57;1.00;;;0.10;99.90;;;;;;5097977;28;20031;-69
2023/02/27 01:29:30;;;;;;;2.30;1.30;;;0.10;99.90;;;;;;5079419;28;20024;-68
2023/02/27 01:31:56;;;;;;;4.10;1.23;;;0.00;99.90;;;;;;5097756;28;20362;-68
2023/02/27 01:34:22;;;;;;;5.43;1.17;;;0.00;99.90;;;;;;5102148;28;20053;-69
2023/02/27 01:36:47;;;;;;;3.10;1.30;;;0.00;99.90;;;;;;5100527;28;20028;-69
2023/02/27 01:39:13;;;;;;;3.20;1.00;;;0.00;99.90;;;;;;5080464;28;20020;-68
2023/02/27 01:41:38;;;;;;;2.47;1.33;;;0.00;99.90;;;;;;5081216;28;20044;-69
2023/02/27 01:44:10;;;;;;;5.43;1.50;;;0.00;99.90;;;;;;5099066;28;20043;-69
2023/02/27 01:46:36;;;;;;;3.13;1.25;;;0.00;99.90;;;;;;5078407;28;20052;-69
2023/02/27 01:49:07;;;;;;;1.57;1.17;;;-0.10;99.90;;;;;;5100545;28;20020;-69
2023/02/27 01:51:37;;;;;;;5.90;1.50;;;0.00;99.90;;;;;;5099002;28;20079;-69
2023/02/27 01:54:05;;;;;;;4.75;1.40;;;0.00;99.90;;;;;;5098348;28;20024;-69
2023/02/27 01:56:31;;;;;;;4.10;1.10;;;0.00;99.90;;;;;;5077108;28;20115;-69
2023/02/27 01:59:02;;;;;;;2.07;1.07;;;0.00;99.90;;;;;;5094874;28;20062;-69
2023/02/27 02:01:29;;;;;;;2.70;1.40;;;0.00;99.90;;;;;;5095126;28;20020;-68
2023/02/27 02:04:17;;;;;;;2.63;1.23;;;0.00;99.90;;;;;;5095116;28;20020;-68
2023/02/27 02:06:48;;;;;;;4.75;1.30;;;0.00;99.90;;;;;;5094929;28;20067;-68
2023/02/27 02:09:17;;;;;;;3.22;1.13;;;-0.10;99.90;;;;;;5079067;28;20050;-69
2023/02/27 02:11:43;;;;;;;2.05;1.33;;;-0.10;99.90;;;;;;5098649;28;20024;-69
2023/02/27 02:14:09;;;;;;;1.88;0.93;;;-0.10;99.90;;;;;;5083728;28;20544;-69
2023/02/27 02:17:09;;;;;;;4.40;1.27;;;-0.20;99.90;;;;;;5101405;28;20020;-69
2023/02/27 02:19:50;;;;;;;1.85;1.00;;;-0.10;99.90;;;;;;5083993;28;20028;-69
2023/02/27 02:22:49;;;;;;;2.53;1.08;;;-0.10;99.90;;;;;;5101967;28;20028;-67
2023/02/27 02:25:41;;;;;;;2.65;1.20;;;-0.20;99.90;;;;;;5079664;28;20033;-68
2023/02/27 02:28:16;;;;;;;2.90;1.30;;;-0.20;99.90;;;;;;5081687;28;20027;-68
2023/02/27 02:31:38;;;;;;;1.38;1.00;;;-0.20;99.90;;;;;;5099038;28;20028;-68
2023/02/27 02:34:32;;;;;;;4.57;1.00;;;-0.20;99.90;;;;;;5098315;28;20032;-68
2023/02/27 02:37:33;;;;;;;3.22;1.13;;;-0.20;99.90;;;;;;5098506;28;20039;-69
2023/02/27 02:40:04;;;;;;;2.53;0.98;;;-0.30;99.90;;;;;;5101090;28;20402;-69
2023/02/27 02:42:42;;;;;;;3.40;1.40;;;-0.30;99.90;;;;;;5078859;28;20025;-68
2023/02/27 02:45:32;;;;;;;3.33;1.27;;;-0.30;99.90;;;;;;5074577;28;20053;-68
2023/02/27 02:48:16;;;;;;;4.97;1.40;;;-0.30;99.90;;;;;;5074460;28;20114;-68
2023/02/27 02:51:13;;;;;;;3.40;1.40;;;-0.30;99.90;;;;;;5091138;28;20110;-68
2023/02/27 02:53:50;;;;;;;2.43;0.90;;;-0.20;99.90;;;;;;4994117;28;20481;-69
2023/02/27 02:56:24;;;;;;;2.63;1.52;;;-0.30;99.90;;;;;;4995389;28;20472;-68
2023/02/27 02:58:58;;;;;;;2.05;0.98;;;-0.30;99.90;;;;;;4976168;28;20031;-69
2023/02/27 03:02:12;;;;;;;3.60;1.20;;;-0.30;99.90;;;;;;4992162;28;20480;-68
2023/02/27 03:04:44;;;;;;;3.92;1.40;;;-0.30;99.90;;;;;;4934527;29;20454;-68
2023/02/27 03:07:29;;;;;;;2.67;1.00;;;-0.30;99.90;;;;;;4934033;29;20043;-68
2023/02/27 03:10:14;;;;;;;3.03;1.23;;;-0.30;99.90;;;;;;4934680;29;20036;-68
2023/02/27 03:12:44;;;;;;;5.00;1.08;;;-0.30;99.90;;;;;;4934027;29;20042;-68
2023/02/27 03:15:33;;;;;;;2.30;1.17;;;-0.30;99.90;;;;;;4933972;29;20039;-69
2023/02/27 03:18:21;;;;;;;2.75;1.05;;;-0.30;99.90;;;;;;4934985;29;20035;-68
2023/02/27 03:21:03;;;;;;;5.22;1.23;;;-0.30;99.90;;;;;;4916040;29;20036;-68
2023/02/27 03:23:44;;;;;;;2.63;1.17;;;-0.40;99.90;;;;;;4932894;29;20480;-69
2023/02/27 03:26:13;;;;;;;3.70;1.00;;;-0.40;99.90;;;;;;4934967;29;20031;-69
2023/02/27 03:28:54;;;;;;;2.65;1.08;;;-0.40;99.90;;;;;;4934773;29;20146;-68
2023/02/27 03:31:32;;;;;;;2.42;1.15;;;-0.30;99.90;;;;;;5005207;28;20037;-68
2023/02/27 03:34:30;;;;;;;2.55;1.20;;;-0.40;99.90;;;;;;5012414;28;20495;-68
2023/02/27 03:37:26;;;;;;;1.90;1.20;;;-0.40;99.90;;;;;;4999494;28;20537;-69
2023/02/27 03:40:17;;;;;;;2.78;1.30;;;-0.40;99.90;;;;;;5020588;28;20078;-69
2023/02/27 03:42:52;;;;;;;2.92;1.20;;;-0.40;99.90;;;;;;5044779;28;20044;-69
2023/02/27 03:45:52;;;;;;;2.78;1.00;;;-0.40;99.90;;;;;;5090218;28;20095;-68
2023/02/27 03:48:18;;;;;;;2.40;1.05;;;-0.40;99.90;;;;;;5093305;28;20024;-68
2023/02/27 03:50:44;;;;;;;2.17;1.17;;;-0.40;99.90;;;;;;5093061;28;20440;-69
2023/02/27 03:53:20;;;;;;;3.17;0.98;;;-0.40;99.90;;;;;;5093302;28;20036;-69
2023/02/27 03:55:47;;;;;;;3.40;1.48;;;-0.40;99.90;;;;;;5075417;28;20430;-68
2023/02/27 03:58:13;;;;;;;4.88;1.23;;;-0.40;99.90;;;;;;5093366;28;20035;-69
2023/02/27 04:00:39;;;;;;;2.50;1.20;;;-0.40;99.90;;;;;;5092981;28;20069;-69
2023/02/27 04:03:05;;;;;;;4.00;1.40;;;-0.50;99.90;;;;;;5075344;28;20024;-69
2023/02/27 04:05:31;;;;;;;3.83;1.37;;;-0.40;99.90;;;;;;5095362;28;20032;-69
2023/02/27 04:08:12;;;;;;;;;;;-0.50;99.90;;;;;;5095281;28;20281;-69
2023/02/27 04:11:02;;;;;;;1.83;1.00;;;-0.50;99.90;;;;;;5076470;28;19965;-68
2023/02/27 04:13:37;;;;;;;2.63;1.20;;;-0.40;99.90;;;;;;5075995;28;20020;-68
2023/02/27 04:16:38;;;;;;;3.22;1.40;;;-0.50;99.90;;;;;;5096732;28;20032;-68
2023/02/27 04:19:14;;;;;;;4.57;1.33;;;-0.50;99.90;;;;;;5079609;28;20020;-69
2023/02/27 04:22:07;;;;;;;2.53;1.48;;;-0.50;99.90;;;;;;5097322;28;20027;-68
2023/02/27 04:24:55;;;;;;;4.07;1.20;;;-0.50;99.90;;;;;;5097334;28;20034;-69
2023/02/27 04:27:29;;;;;;;3.78;1.38;;;-0.50;99.90;;;;;;5096876;28;20428;-68
2023/02/27 04:30:28;;;;;;;3.70;1.15;;;-0.60;99.90;;;;;;5095713;28;20062;-68
2023/02/27 04:33:09;;;;;;;4.50;1.48;;;-0.50;99.90;;;;;;5097037;28;20051;-68
2023/02/27 04:35:45;;;;;;;3.88;1.42;;;-0.60;99.90;;;;;;5078557;28;20027;-68
2023/02/27 04:38:27;;;;;;;2.80;1.10;;;-0.60;99.90;;;;;;5071741;28;20161;-68
2023/02/27 04:41:15;;;;;;;2.78;1.23;;;-0.60;99.90;;;;;;5094737;28;20058;-69
2023/02/27 04:43:44;;;;;;;2.40;1.20;;;-0.50;99.90;;;;;;5090764;28;20028;-69
2023/02/27 04:46:13;;;;;;;4.50;1.65;;;-0.50;99.90;;;;;;5096238;28;20020;-68
2023/02/27 04:49:11;;;;;;;3.30;1.33;;;-0.60;99.90;;;;;;5078246;28;20024;-68
2023/02/27 04:52:04;;;;;;;2.88;1.20;;;-0.60;99.90;;;;;;5069188;28;20060;-68
2023/02/27 04:54:42;;;;;;;4.25;1.75;;;-0.60;99.90;;;;;;5075812;28;20427;-68
2023/02/27 04:57:12;;;;;;;2.55;1.30;;;-0.60;99.90;;;;;;5070788;28;20020;-67
2023/02/27 04:59:45;;;;;;;2.92;1.38;;;-0.60;99.90;;;;;;5095715;28;20032;-69
2023/02/27 05:02:18;;;;;;;4.15;1.30;;;-0.60;99.90;;;;;;5096344;28;20523;-69
2023/02/27 05:04:47;;;;;;;3.22;1.20;;;-0.60;99.90;;;;;;5069453;28;20025;-69
2023/02/27 05:07:18;;;;;;;5.45;1.30;;;-0.60;99.90;;;;;;5075819;28;20111;-69
2023/02/27 05:10:04;;;;;;;2.92;1.00;;;-0.60;99.90;;;;;;5057648;28;20035;-69
2023/02/27 05:12:56;;;;;;;3.65;1.40;;;-0.60;99.90;;;;;;5092410;28;20031;-68
2023/02/27 05:15:29;;;;;;;4.88;1.65;;;-0.70;99.90;;;;;;5076021;28;20028;-68
2023/02/27 05:18:00;;;;;;;6.60;1.40;;;-0.70;99.90;;;;;;5081787;28;20073;-69
2023/02/27 05:21:05;;;;;;;3.92;1.00;;;-0.60;99.90;;;;;;5095738;28;20032;-68
2023/02/27 05:23:49;;;;;;;3.00;1.25;;;-0.60;99.90;;;;;;4993881;28;20081;-68
2023/02/27 05:26:40;;;;;;;4.18;1.17;;;-0.70;99.90;;;;;;5072648;28;20035;-69
2023/02/27 05:29:16;;;;;;;2.42;1.42;;;-0.70;99.90;;;;;;5030890;28;20035;-69
2023/02/27 05:31:49;;;;;;;4.90;1.40;;;-0.70;99.90;;;;;;5093775;28;20031;-69
2023/02/27 05:34:28;;;;;;;3.22;1.52;;;-0.70;99.90;;;;;;5091018;28;20021;-69
2023/02/27 05:37:07;;;;;;;2.35;1.10;;;-0.70;99.90;;;;;;5087385;28;20024;-69
2023/02/27 05:39:36;;;;;;;3.60;1.10;;;-0.70;99.90;;;;;;5095454;28;20077;-69
2023/02/27 05:42:28;;;;;;;3.67;1.30;;;-0.70;99.90;;;;;;5096278;28;20028;-69
2023/02/27 05:45:00;;;;;;;3.50;1.23;;;-0.70;99.90;;;;;;5076329;28;20036;-69
2023/02/27 05:47:30;;;;;;;2.08;1.00;;;-0.70;99.90;;;;;;5057863;28;20029;-69
2023/02/27 05:50:11;;;;;;;2.28;1.13;;;-0.70;99.90;;;;;;5062673;28;20031;-68
2023/02/27 05:52:39;;;;;;;2.42;1.20;;;-0.70;99.90;;;;;;5077446;28;20114;-67
2023/02/27 05:55:14;;;;;;;4.43;1.25;;;-0.70;99.90;;;;;;5095861;28;20119;-68
2023/02/27 05:57:52;;;;;;;2.42;1.27;;;-0.70;99.90;;;;;;5095832;28;20119;-70
2023/02/27 06:00:25;;;;;;;4.68;1.73;;;-0.80;99.90;;;;;;5095118;28;20028;-69
2023/02/27 06:02:52;;;;;;;2.90;1.58;;;-0.80;99.90;;;;;;5074968;28;21734;-69
2023/02/27 06:05:18;;;;;;;4.85;1.65;;;-0.80;99.90;;;;;;5095566;28;20028;-69
2023/02/27 06:07:44;;;;;;;;;;;-0.70;99.90;;;;;;5095326;28;20065;-69
2023/02/27 06:10:14;;;;;;;4.93;1.50;;;-0.70;99.90;;;;;;5095296;28;19943;-68
2023/02/27 06:12:41;;;;;;;3.05;1.45;;;-0.70;99.90;;;;;;5096018;28;20043;-68
2023/02/27 06:15:07;;;;;;;4.78;1.40;;;-0.80;99.90;;;;;;5095242;28;20056;-68
2023/02/27 06:17:33;;;;;;;5.63;1.20;;;-0.70;99.90;;;;;;5095222;28;20378;-68
2023/02/27 06:19:58;;;;;;;3.20;1.13;;;-0.70;99.90;;;;;;5090576;28;20046;-69
2023/02/27 06:22:24;;;;;;;4.10;1.60;;;-0.80;99.90;;;;;;5078675;28;20073;-69
2023/02/27 06:24:49;;;;;;;2.63;1.20;;;-0.80;99.90;;;;;;5094157;28;20068;-69
2023/02/27 06:27:15;;;;;;;1.90;1.07;;;-0.70;99.90;;;;;;5076805;28;20396;-68
2023/02/27 06:29:40;;;;;;;2.50;1.43;;;-0.80;99.90;;;;;;5094033;28;20028;-68
2023/02/27 06:32:06;;;;;;;2.87;1.60;;;-0.70;99.90;;;;;;5076483;28;20477;-68
2023/02/27 06:34:31;;;;;;;3.47;1.37;;;-0.70;99.90;;;;;;5093749;28;20028;-70
2023/02/27 06:36:57;;;;;;;3.27;1.50;;;-0.70;99.90;;;;;;5094379;28;20024;-69
2023/02/27 06:39:22;;;;;;;3.77;1.63;;;-0.70;99.90;;;;;;5093916;28;20028;-68
2023/02/27 06:41:48;;;;;;;3.47;1.67;;;-0.60;99.90;;;;;;5075802;28;20024;-69
2023/02/27 06:44:14;;;;;;;4.70;1.80;;;-0.60;99.90;;;;;;5093691;28;20016;-68
2023/02/27 06:46:39;;;;;;;4.93;1.25;;;-0.70;99.90;;;;;;5056014;28;20025;-68
2023/02/27 06:49:05;;;;;;;4.63;1.43;;;-0.60;99.90;;;;;;5073753;28;20407;-70
2023/02/27 06:51:30;;;;;;;6.37;1.37;;;-0.60;99.90;;;;;;5092030;28;20020;-70
2023/02/27 06:53:56;;;;;;;5.10;1.80;;;-0.60;99.90;;;;;;5075849;28;20028;-68
2023/02/27 06:56:21;;;;;;;2.37;1.40;;;-0.60;99.90;;;;;;5094315;28;20074;-69
2023/02/27 06:58:47;;;;;;;2.60;1.57;;;-0.50;99.90;;;;;;5093084;28;20062;-69
2023/02/27 07:01:13;;;;;;;4.07;1.70;;;-0.50;99.90;;;;;;5076178;28;20035;-69
2023/02/27 07:03:38;;;;;;;2.80;1.27;;;-0.50;99.90;;;;;;5093475;28;20024;-68
2023/02/27 07:06:04;;;;;;;3.73;1.37;;;-0.50;99.90;;;;;;5093681;28;20028;-68
2023/02/27 07:08:30;;;;;;;3.47;1.50;;;-0.50;99.90;;;;;;5093796;28;20396;-69
2023/02/27 07:10:56;;;;;;;5.60;1.57;;;-0.40;99.90;;;;;;5092706;28;20110;-68
2023/02/27 07:13:22;;;;;;;3.13;1.53;;;-0.40;99.90;;;;;;5093740;28;20107;-68
2023/02/27 07:15:48;;;;;;;5.15;1.70;;;-0.40;99.90;;;;;;5074706;28;20055;-68
2023/02/27 07:18:14;;;;;;;;;;;-0.30;99.90;;;;;;5095232;28;20050;-69
2023/02/27 07:20:39;;;;;;;3.10;1.55;;;-0.30;99.90;;;;;;5065308;28;20292;-68
2023/02/27 07:23:05;;;;;;;3.17;1.50;;;-0.30;99.90;;;;;;5074155;28;20020;-68
2023/02/27 07:25:30;;;;;;;4.83;1.93;;;-0.20;99.90;;;;;;5080727;28;20020;-68
2023/02/27 07:27:56;;;;;;;4.03;1.70;;;-0.20;99.90;;;;;;5094866;28;20510;-69
2023/02/27 07:30:21;;;;;;;3.57;1.63;;;-0.20;99.90;;;;;;5091010;28;20032;-69
2023/02/27 07:32:47;;;;;;;5.20;1.50;;;-0.10;99.90;;;;;;5072758;28;20075;-68
2023/02/27 07:35:12;;;;;;;4.97;1.70;;;-0.10;99.90;;;;;;5073177;28;20040;-68
2023/02/27 07:37:38;;;;;;;3.13;1.27;;;-0.10;99.90;;;;;;5092967;28;20023;-69
2023/02/27 07:40:06;;;;;;;2.40;1.63;;;0.00;99.90;;;;;;5093475;28;20476;-70
2023/02/27 07:42:32;;;;;;;2.50;1.40;;;0.00;99.90;;;;;;5074644;28;20020;-69
2023/02/27 07:44:59;;;;;;;3.42;1.77;;;0.00;99.90;;;;;;5076051;28;20060;-68
2023/02/27 07:47:25;;;;;;;4.32;1.60;;;0.00;99.90;;;;;;5074724;28;20024;-68
2023/02/27 07:49:50;;;;;;;7.57;2.03;;;0.10;99.90;;;;;;5072634;28;20481;-69
2023/02/27 07:52:16;;;;;;;2.72;1.55;;;0.20;99.90;;;;;;5088340;28;20063;-68
2023/02/27 07:54:41;;;;;;;3.47;1.43;;;0.20;99.90;;;;;;5093083;28;20020;-75
2023/02/27 07:57:07;;;;;;;4.00;1.60;;;0.30;99.90;;;;;;5060546;28;20016;-72
2023/02/27 07:59:33;;;;;;;4.80;1.63;;;0.20;99.90;;;;;;5055047;28;20036;-73
2023/02/27 08:01:58;;;;;;;4.00;1.53;;;0.30;99.90;;;;;;5054536;28;20029;-72
2023/02/27 08:04:24;;;;;;;5.60;1.90;;;0.40;99.90;;;;;;5055489;28;20024;-72
2023/02/27 08:06:50;;;;;;;1.80;1.33;;;0.50;99.90;;;;;;5054584;28;20029;-71
2023/02/27 08:09:15;;;;;;;4.50;1.60;;;0.50;99.90;;;;;;5055008;28;20575;-71
2023/02/27 08:11:41;;;;;;;4.33;1.73;;;0.50;99.90;;;;;;5082318;28;20043;-75
2023/02/27 08:14:06;;;;;;;3.03;1.53;;;0.60;99.90;;;;;;5093158;28;20036;-74
2023/02/27 08:16:32;;;;;;;5.03;1.60;;;0.60;99.90;;;;;;5074570;28;20028;-76
2023/02/27 08:18:59;;;;;;;4.75;1.60;;;0.60;99.90;;;;;;5075878;28;20028;-77
2023/02/27 08:21:25;;;;;;;4.22;1.58;;;0.70;99.90;;;;;;5075345;28;20040;-74
2023/02/27 08:23:51;;;;;;;2.97;1.17;;;0.80;99.90;;;;;;5073189;28;20032;-75
2023/02/27 08:26:17;;;;;;;5.50;1.77;;;0.80;99.90;;;;;;5058116;28;20035;-74
2023/02/27 08:28:43;;;;;;;3.92;1.65;;;0.90;99.90;;;;;;5073613;28;20029;-72
2023/02/27 08:31:08;;;;;;;6.45;1.63;;;0.80;99.90;;;;;;5075876;28;20043;-75
2023/02/27 08:33:34;;;;;;;3.97;1.97;;;0.90;99.90;;;;;;5071344;28;20035;-76
2023/02/27 08:36:00;;;;;;;3.90;1.67;;;1.00;99.90;;;;;;5074472;28;20024;-73
2023/02/27 08:38:25;;;;;;;4.70;1.67;;;1.00;99.90;;;;;;5075045;28;20016;-75
2023/02/27 08:40:54;;;;;;;6.20;1.87;;;1.00;99.90;;;;;;5062398;28;20132;-69
2023/02/27 08:43:21;;;;;;;5.80;2.03;;;1.10;99.90;;;;;;5072585;28;20025;-69
2023/02/27 08:45:49;;;;;;;2.42;1.38;;;1.20;99.90;;;;;;5078041;28;20035;-74
2023/02/27 08:48:16;;;;;;;3.35;1.52;;;1.20;99.90;;;;;;5063586;28;20025;-75
2023/02/27 08:50:43;;;;;;;2.97;1.67;;;1.20;99.90;;;;;;5075361;28;20032;-74
2023/02/27 08:53:08;;;;;;;;;;;1.30;99.90;;;;;;5082519;28;20031;-74
2023/02/27 08:55:34;;;;;;;4.28;1.20;;;1.40;99.90;;;;;;5087792;28;19908;-70
2023/02/27 08:57:59;;;;;;;8.57;1.40;;;1.40;99.90;;;;;;5077006;28;20017;-75
2023/02/27 09:00:25;;;;;;;2.67;1.40;;;1.50;99.90;;;;;;5077631;28;20386;-74
2023/02/27 09:02:51;;;;;;;3.67;1.63;;;1.60;99.90;;;;;;5065276;28;20695;-72
2023/02/27 09:05:17;;;;;;;2.60;1.35;;;1.70;99.90;;;;;;5097308;28;20480;-72
2023/02/27 09:07:43;;;;;;;5.60;1.60;;;1.70;99.90;;;;;;5099352;28;20043;-73
2023/02/27 09:10:09;;;;;;;3.90;1.40;;;1.70;99.90;;;;;;5082105;28;20035;-73
2023/02/27 09:12:35;;;;;;;5.45;1.60;;;1.80;99.90;;;;;;5080769;28;20028;-72
2023/02/27 09:15:00;;;;;;;4.03;1.30;;;1.80;99.90;;;;;;5097780;28;20034;-74
2023/02/27 09:17:26;;;;;;;4.10;1.40;;;1.80;99.90;;;;;;5096686;28;20311;-71
2023/02/27 09:19:52;;;;;;;3.05;1.20;;;1.90;99.90;;;;;;5096297;28;20027;-74
2023/02/27 09:22:18;;;;;;;1.90;1.20;;;2.00;99.90;;;;;;5078403;28;20119;-75
2023/02/27 09:24:44;;;;;;;3.08;1.30;;;2.00;99.90;;;;;;5096558;28;20035;-75
2023/02/27 09:27:09;;;;;;;2.03;1.00;;;2.20;99.70;;;;;;5078374;28;20028;-76
2023/02/27 09:29:35;;;;;;;2.03;0.90;;;2.70;99.00;;;;;;5078290;28;20035;-75
2023/02/27 09:32:00;;;;;;;3.37;1.10;;;3.80;97.10;;;;;;5078335;28;20161;-75
2023/02/27 09:34:26;;;;;;;2.13;1.10;;;5.00;94.60;;;;;;5078079;28;20077;-75
2023/02/27 09:36:52;;;;;;;4.37;1.40;;;6.20;92.50;;;;;;5073990;28;20016;-75
2023/02/27 09:39:17;;;;;;;2.67;1.20;;;6.50;91.40;;;;;;5074367;28;20016;-76
2023/02/27 09:41:52;;;;;;;1.97;1.07;;;7.40;90.20;;;;;;5074200;28;20025;-75
2023/02/27 09:44:29;;;;;;;2.50;1.20;;;7.60;86.10;;;;;;5057673;28;20032;-73
2023/02/27 09:46:55;;;;;;;5.07;1.20;;;7.20;86.60;;;;;;5074814;28;20435;-74
2023/02/27 09:49:24;;;;;;;3.13;1.23;;;7.80;84.80;;;;;;5084005;28;20020;-72
2023/02/27 09:51:52;;;;;;;1.98;0.80;;;7.20;85.50;;;;;;5078092;28;20027;-72
2023/02/27 09:54:18;;;;;;;3.15;1.27;;;7.40;84.10;;;;;;5076563;28;20052;-74
2023/02/27 09:56:59;;;;;;;4.50;1.73;;;7.50;84.00;;;;;;5078698;28;20027;-73
2023/02/27 09:59:40;;;;;;;3.90;0.90;;;8.10;82.00;;;;;;5079427;28;20028;-73
2023/02/27 10:02:21;;;;;;;2.60;1.25;;;7.80;82.60;;;;;;5078369;28;20473;-74
2023/02/27 10:04:57;;;;;;;3.17;1.00;;;7.90;81.10;;;;;;5077515;28;20028;-73
2023/02/27 10:07:55;;;;;;;2.00;1.10;;;7.00;82.20;;;;;;5095446;28;20031;-70
2023/02/27 10:10:29;;;;;;;;;;;7.40;81.90;;;;;;5095078;28;20051;-70
2023/02/27 10:13:10;;;;;;;2.15;1.00;;;7.80;81.50;;;;;;5093901;28;20002;-69
2023/02/27 10:15:42;;;;;;;3.92;0.93;;;9.60;78.20;;;;;;5093932;28;20019;-70
2023/02/27 10:18:21;;;;;;;4.32;1.20;;;9.70;75.80;;;;;;5074836;28;20043;-69
2023/02/27 10:21:04;;;;;;;1.55;0.98;;;9.60;74.80;;;;;;5089994;28;20028;-74
2023/02/27 10:23:40;;;;;;;2.83;1.13;;;9.70;74.00;;;;;;5076672;28;20069;-73
2023/02/27 10:26:14;;;;;;;6.93;1.33;;;9.90;72.70;;;;;;5076685;28;20053;-73
2023/02/27 10:28:40;;;;;;;2.55;1.52;;;9.50;73.20;;;;;;5076001;28;20024;-74
2023/02/27 10:31:14;;;;;;;3.17;1.07;;;9.90;72.30;;;;;;5076248;28;20146;-73
2023/02/27 10:33:41;;;;;;;3.40;1.25;;;10.10;71.60;;;;;;5076986;28;20023;-74
2023/02/27 10:36:10;;;;;;;4.13;1.45;;;10.40;71.30;;;;;;5094510;28;20103;-73
2023/02/27 10:38:56;;;;;;;3.70;1.20;;;9.90;70.80;;;;;;5076480;28;20107;-73
2023/02/27 10:41:23;;;;;;;2.58;0.98;;;9.40;70.80;;;;;;5096173;28;20073;-74
2023/02/27 10:43:56;;;;;;;9.98;1.25;;;10.10;71.50;;;;;;5097100;28;20024;-71
2023/02/27 10:46:26;;;;;;;4.80;1.20;;;10.20;69.90;;;;;;5079002;28;20028;-73
2023/02/27 10:48:53;;;;;;;1.73;1.02;;;10.00;69.70;;;;;;5096278;28;20553;-72
2023/02/27 10:51:27;;;;;;;5.13;1.60;;;9.80;70.60;;;;;;5095214;28;20024;-76
2023/02/27 10:54:15;;;;;;;2.92;1.13;;;10.10;70.30;;;;;;5076760;28;20036;-69
2023/02/27 10:56:45;;;;;;;1.25;0.82;;;10.70;69.10;;;;;;5095552;28;20031;-70
2023/02/27 10:59:32;;;;;;;2.38;1.00;;;9.50;69.70;;;;;;5095304;28;20024;-69
2023/02/27 11:01:59;;;;;;;3.05;0.93;;;8.70;71.30;;;;;;5093410;28;20024;-68
2023/02/27 11:04:31;;;;;;;5.90;0.95;;;10.00;70.10;;;;;;5073863;28;20384;-69
2023/02/27 11:06:59;;;;;;;2.08;1.30;;;9.40;70.00;;;;;;5055769;28;20056;-68
2023/02/27 11:09:27;;;;;;;3.15;0.95;;;8.90;71.00;;;;;;5073830;28;20028;-68
2023/02/27 11:11:54;;;;;;;2.47;1.10;;;9.10;70.90;;;;;;5074077;28;20032;-69
2023/02/27 11:14:26;;;;;;;2.13;1.05;;;8.90;71.40;;;;;;5073236;28;20048;-69
2023/02/27 11:16:55;;;;;;;2.30;1.05;;;8.80;71.80;;;;;;5073655;28;20033;-69
2023/02/27 11:19:33;;;;;;;3.05;1.10;;;7.40;73.00;;;;;;5073307;28;20040;-68
2023/02/27 11:22:14;;;;;;;1.92;1.08;;;6.00;76.40;;;;;;5055710;28;20017;-68
2023/02/27 11:24:40;;;;;;;2.92;1.20;;;5.30;79.10;;;;;;5073339;28;20401;-69
2023/02/27 11:27:27;;;;;;;4.78;1.27;;;5.20;80.60;;;;;;5073637;28;20036;-74
2023/02/27 11:30:02;;;;;;;3.30;1.67;;;4.90;81.40;;;;;;5073637;28;20031;-68
2023/02/27 11:32:47;;;;;;;5.97;1.60;;;4.60;82.00;;;;;;5073732;28;20485;-69
2023/02/27 11:35:27;;;;;;;2.80;1.05;;;4.70;83.00;;;;;;5073055;28;20441;-68
2023/02/27 11:37:55;;;;;;;1.52;1.10;;;4.60;81.60;;;;;;5092773;28;20551;-68
2023/02/27 11:40:26;;;;;;;2.83;1.10;;;4.50;82.10;;;;;;5094503;28;20024;-67
2023/02/27 11:42:55;;;;;;;3.60;1.08;;;4.20;81.90;;;;;;5094448;28;20023;-72
2023/02/27 11:45:34;;;;;;;3.55;1.33;;;4.10;82.80;;;;;;5094213;28;20028;-75
2023/02/27 11:48:09;;;;;;;2.30;1.30;;;4.10;83.80;;;;;;5094238;28;20023;-69
2023/02/27 11:50:57;;;;;;;2.50;1.20;;;4.20;84.50;;;;;;5093426;28;20396;-72
2023/02/27 11:53:46;;;;;;;2.67;1.40;;;4.20;84.50;;;;;;5076050;28;20028;-75
2023/02/27 11:56:20;;;;;;;5.00;1.55;;;4.30;84.40;;;;;;5093650;28;20047;-72
2023/02/27 11:58:57;;;;;;;3.05;1.42;;;4.40;84.20;;;;;;5093526;28;20477;-74
2023/02/27 12:01:30;;;;;;;2.95;1.30;;;4.40;83.50;;;;;;5075312;28;20481;-76
2023/02/27 12:04:34;;;;;;;2.05;1.10;;;4.50;83.80;;;;;;5075649;28;20016;-75
2023/02/27 12:07:09;;;;;;;3.38;1.35;;;4.40;83.90;;;;;;5093074;28;20452;-71
2023/02/27 12:09:48;;;;;;;3.80;1.33;;;4.50;84.20;;;;;;5074758;28;20483;-74
2023/02/27 12:12:41;;;;;;;3.45;1.05;;;4.70;83.90;;;;;;5074947;28;20108;-71
2023/02/27 12:15:29;;;;;;;3.60;1.50;;;4.70;82.90;;;;;;5063771;28;20029;-71
2023/02/27 12:18:18;;;;;;;4.97;2.08;;;4.60;82.70;;;;;;5057533;28;20433;-71
2023/02/27 12:21:02;;;;;;;7.43;1.40;;;4.40;81.90;;;;;;5056023;28;20639;-72
2023/02/27 12:23:46;;;;;;;2.20;1.05;;;4.30;82.60;;;;;;5055300;28;20450;-71
2023/02/27 12:26:19;;;;;;;2.10;1.20;;;4.40;82.60;;;;;;5072965;28;20028;-71
2023/02/27 12:29:02;;;;;;;2.55;1.23;;;4.60;82.40;;;;;;5055170;28;20029;-74
2023/02/27 12:31:33;;;;;;;4.95;0.90;;;4.90;82.40;;;;;;5057324;28;20063;-71
2023/02/27 12:34:24;;;;;;;2.03;1.35;;;4.80;80.80;;;;;;5055067;28;20078;-72
2023/02/27 12:36:52;;;;;;;2.85;0.95;;;4.70;81.10;;;;;;5059060;28;20063;-71
2023/02/27 12:39:23;;;;;;;2.53;1.00;;;4.50;81.00;;;;;;5076380;28;20445;-71
2023/02/27 12:41:58;;;;;;;3.63;1.15;;;4.50;81.60;;;;;;5076623;28;20021;-71
2023/02/27 12:44:35;;;;;;;2.53;1.10;;;4.60;80.70;;;;;;5058440;28;20064;-71
2023/02/27 12:47:38;;;;;;;3.30;1.10;;;4.60;80.90;;;;;;5076767;28;20427;-71
2023/02/27 12:50:04;;;;;;;2.17;1.00;;;4.50;79.80;;;;;;5076684;28;20032;-73
2023/02/27 12:52:49;;;;;;;2.03;1.07;;;4.50;79.60;;;;;;5059240;28;20157;-74
2023/02/27 12:55:22;;;;;;;1.77;0.90;;;4.50;80.10;;;;;;5058583;28;20066;-75
2023/02/27 12:57:57;;;;;;;2.22;1.30;;;4.60;79.90;;;;;;5092567;28;20023;-73
2023/02/27 13:00:28;;;;;;;2.15;0.98;;;4.80;79.40;;;;;;5096039;28;20417;-67
2023/02/27 13:03:04;;;;;;;2.88;1.30;;;5.00;79.30;;;;;;5096500;28;20326;-69
2023/02/27 13:05:40;;;;;;;3.92;1.27;;;5.00;79.00;;;;;;5096735;28;20089;-70
2023/02/27 13:08:31;;;;;;;4.72;1.13;;;5.10;77.80;;;;;;5077894;28;20082;-74
2023/02/27 13:11:07;;;;;;;3.95;1.00;;;4.80;77.50;;;;;;5058523;28;20123;-74
2023/02/27 13:13:46;;;;;;;2.75;1.15;;;4.80;77.60;;;;;;5058177;28;20512;-70
2023/02/27 13:16:29;;;;;;;3.88;0.93;;;4.90;77.90;;;;;;5058084;28;20035;-69
2023/02/27 13:19:08;;;;;;;2.28;1.20;;;4.90;77.30;;;;;;5059159;28;20476;-68
2023/02/27 13:21:49;;;;;;;2.05;0.90;;;5.00;77.30;;;;;;5058146;28;20392;-69
2023/02/27 13:24:25;;;;;;;1.85;1.13;;;5.10;77.50;;;;;;5057657;28;20111;-73